sensor_id;sensor_type;location;lat;lon;timestamp;P1;durP1;ratioP1;P2;durP2;ratioP2
9906;SDS011;4992;51.628;6.664;2022-12-18T00:01:43;51.60;;;31.63;;
9906;SDS011;4992;51.628;6.664;2022-12-18T00:04:14;46.97;;;30.50;;
9906;SDS011;4992;51.628;6.664;2022-12-18T00:06:45;53.17;;;31.10;;
9906;SDS011;4992;51.628;6.664;2022-12-18T00:09:11;50.00;;;31.53;;
9906;SDS011;4992;51.628;6.664;2022-12-18T00:11:37;49.83;;;30.90;;
9906;SDS011;4992;51.628;6.664;2022-12-18T00:14:02;47.77;;;29.73;;
9906;SDS011;4992;51.628;6.664;2022-12-18T00:16:28;47.13;;;30.33;;
9906;SDS011;4992;51.628;6.664;2022-12-18T00:18:56;46.33;;;29.10;;
9906;SDS011;4992;51.628;6.664;2022-12-18T00:21:23;48.37;;;28.63;;
9906;SDS011;4992;51.628;6.664;2022-12-18T00:23:49;46.47;;;29.00;;
9906;SDS011;4992;51.628;6.664;2022-12-18T00:26:18;46.90;;;28.53;;
9906;SDS011;4992;51.628;6.664;2022-12-18T00:28:46;45.17;;;29.63;;
9906;SDS011;4992;51.628;6.664;2022-12-18T00:31:16;47.03;;;27.97;;
9906;SDS011;4992;51.628;6.664;2022-12-18T00:33:44;49.27;;;29.70;;
9906;SDS011;4992;51.628;6.664;2022-12-18T00:36:11;44.53;;;29.00;;
9906;SDS011;4992;51.628;6.664;2022-12-18T00:38:40;44.73;;;28.83;;
9906;SDS011;4992;51.628;6.664;2022-12-18T00:41:07;46.17;;;28.70;;
9906;SDS011;4992;51.628;6.664;2022-12-18T00:43:34;47.47;;;29.33;;
9906;SDS011;4992;51.628;6.664;2022-12-18T00:46:00;46.63;;;28.30;;
9906;SDS011;4992;51.628;6.664;2022-12-18T00:48:25;44.53;;;28.53;;
9906;SDS011;4992;51.628;6.664;2022-12-18T00:50:51;43.83;;;28.33;;
9906;SDS011;4992;51.628;6.664;2022-12-18T00:53:17;44.50;;;28.00;;
9906;SDS011;4992;51.628;6.664;2022-12-18T00:55:43;45.43;;;28.30;;
9906;SDS011;4992;51.628;6.664;2022-12-18T00:58:09;46.13;;;28.70;;
9906;SDS011;4992;51.628;6.664;2022-12-18T01:00:36;47.87;;;28.87;;
9906;SDS011;4992;51.628;6.664;2022-12-18T01:03:03;45.77;;;27.87;;
9906;SDS011;4992;51.628;6.664;2022-12-18T01:05:29;47.43;;;28.60;;
9906;SDS011;4992;51.628;6.664;2022-12-18T01:07:55;45.33;;;28.17;;
9906;SDS011;4992;51.628;6.664;2022-12-18T01:10:20;43.40;;;27.20;;
9906;SDS011;4992;51.628;6.664;2022-12-18T01:12:46;42.50;;;26.77;;
9906;SDS011;4992;51.628;6.664;2022-12-18T01:15:12;43.37;;;27.30;;
9906;SDS011;4992;51.628;6.664;2022-12-18T01:17:38;44.70;;;27.07;;
9906;SDS011;4992;51.628;6.664;2022-12-18T01:20:04;42.50;;;28.10;;
9906;SDS011;4992;51.628;6.664;2022-12-18T01:22:30;46.43;;;27.23;;
9906;SDS011;4992;51.628;6.664;2022-12-18T01:24:55;40.47;;;26.40;;
9906;SDS011;4992;51.628;6.664;2022-12-18T01:27:21;45.53;;;26.87;;
9906;SDS011;4992;51.628;6.664;2022-12-18T01:29:46;45.83;;;28.80;;
9906;SDS011;4992;51.628;6.664;2022-12-18T01:32:12;44.47;;;28.57;;
9906;SDS011;4992;51.628;6.664;2022-12-18T01:34:38;46.27;;;28.63;;
9906;SDS011;4992;51.628;6.664;2022-12-18T01:37:04;41.73;;;27.47;;
9906;SDS011;4992;51.628;6.664;2022-12-18T01:39:30;42.60;;;28.00;;
9906;SDS011;4992;51.628;6.664;2022-12-18T01:41:57;41.00;;;27.77;;
9906;SDS011;4992;51.628;6.664;2022-12-18T01:47:52;40.93;;;25.23;;
9906;SDS011;4992;51.628;6.664;2022-12-18T01:52:48;45.57;;;26.70;;
9906;SDS011;4992;51.628;6.664;2022-12-18T01:55:23;47.60;;;26.83;;
9906;SDS011;4992;51.628;6.664;2022-12-18T01:57:55;42.77;;;26.47;;
9906;SDS011;4992;51.628;6.664;2022-12-18T02:00:23;44.57;;;27.03;;
9906;SDS011;4992;51.628;6.664;2022-12-18T02:02:49;44.23;;;26.53;;
9906;SDS011;4992;51.628;6.664;2022-12-18T02:05:26;43.23;;;26.43;;
9906;SDS011;4992;51.628;6.664;2022-12-18T02:18:45;42.07;;;26.00;;
9906;SDS011;4992;51.628;6.664;2022-12-18T02:21:44;45.87;;;27.17;;
9906;SDS011;4992;51.628;6.664;2022-12-18T02:24:29;50.67;;;28.57;;
9906;SDS011;4992;51.628;6.664;2022-12-18T02:27:10;46.30;;;28.20;;
9906;SDS011;4992;51.628;6.664;2022-12-18T02:32:20;46.87;;;27.83;;
9906;SDS011;4992;51.628;6.664;2022-12-18T02:34:50;45.67;;;27.53;;
9906;SDS011;4992;51.628;6.664;2022-12-18T02:37:17;49.23;;;28.20;;
9906;SDS011;4992;51.628;6.664;2022-12-18T02:39:44;49.90;;;29.07;;
9906;SDS011;4992;51.628;6.664;2022-12-18T02:42:12;50.47;;;28.37;;
9906;SDS011;4992;51.628;6.664;2022-12-18T02:44:43;51.00;;;28.90;;
9906;SDS011;4992;51.628;6.664;2022-12-18T02:47:14;47.80;;;28.17;;
9906;SDS011;4992;51.628;6.664;2022-12-18T02:49:49;48.27;;;28.87;;
9906;SDS011;4992;51.628;6.664;2022-12-18T02:58:33;55.30;;;28.87;;
9906;SDS011;4992;51.628;6.664;2022-12-18T03:03:39;51.40;;;27.60;;
9906;SDS011;4992;51.628;6.664;2022-12-18T03:06:32;53.97;;;29.53;;
9906;SDS011;4992;51.628;6.664;2022-12-18T03:08:59;54.33;;;31.43;;
9906;SDS011;4992;51.628;6.664;2022-12-18T03:11:37;50.53;;;28.20;;
9906;SDS011;4992;51.628;6.664;2022-12-18T03:14:25;52.57;;;29.73;;
9906;SDS011;4992;51.628;6.664;2022-12-18T03:16:54;52.80;;;30.07;;
9906;SDS011;4992;51.628;6.664;2022-12-18T03:19:27;50.93;;;30.17;;
9906;SDS011;4992;51.628;6.664;2022-12-18T03:21:55;55.23;;;31.47;;
9906;SDS011;4992;51.628;6.664;2022-12-18T03:24:22;55.43;;;30.87;;
9906;SDS011;4992;51.628;6.664;2022-12-18T03:26:50;52.47;;;29.63;;
9906;SDS011;4992;51.628;6.664;2022-12-18T03:29:27;54.13;;;29.07;;
9906;SDS011;4992;51.628;6.664;2022-12-18T03:32:02;53.23;;;28.50;;
9906;SDS011;4992;51.628;6.664;2022-12-18T03:34:35;51.77;;;28.77;;
9906;SDS011;4992;51.628;6.664;2022-12-18T03:37:03;49.00;;;27.83;;
9906;SDS011;4992;51.628;6.664;2022-12-18T03:39:30;48.90;;;28.43;;
9906;SDS011;4992;51.628;6.664;2022-12-18T03:42:05;48.83;;;28.03;;
9906;SDS011;4992;51.628;6.664;2022-12-18T03:47:17;47.57;;;27.57;;
9906;SDS011;4992;51.628;6.664;2022-12-18T03:49:55;47.87;;;27.77;;
9906;SDS011;4992;51.628;6.664;2022-12-18T03:52:46;49.50;;;29.00;;
9906;SDS011;4992;51.628;6.664;2022-12-18T03:55:17;47.07;;;28.17;;
9906;SDS011;4992;51.628;6.664;2022-12-18T03:57:44;46.13;;;27.67;;
9906;SDS011;4992;51.628;6.664;2022-12-18T04:00:12;53.67;;;29.20;;
9906;SDS011;4992;51.628;6.664;2022-12-18T04:02:43;47.00;;;28.03;;
9906;SDS011;4992;51.628;6.664;2022-12-18T04:05:15;49.27;;;28.00;;
9906;SDS011;4992;51.628;6.664;2022-12-18T04:07:42;45.43;;;26.53;;
9906;SDS011;4992;51.628;6.664;2022-12-18T04:10:11;47.07;;;27.30;;
9906;SDS011;4992;51.628;6.664;2022-12-18T04:12:38;48.37;;;27.70;;
9906;SDS011;4992;51.628;6.664;2022-12-18T04:15:04;46.00;;;27.83;;
9906;SDS011;4992;51.628;6.664;2022-12-18T04:17:30;46.17;;;27.77;;
9906;SDS011;4992;51.628;6.664;2022-12-18T04:19:55;50.00;;;28.20;;
9906;SDS011;4992;51.628;6.664;2022-12-18T04:22:21;49.20;;;27.60;;
9906;SDS011;4992;51.628;6.664;2022-12-18T04:24:47;45.90;;;27.90;;
9906;SDS011;4992;51.628;6.664;2022-12-18T04:27:12;42.63;;;26.83;;
9906;SDS011;4992;51.628;6.664;2022-12-18T04:29:38;48.67;;;27.70;;
9906;SDS011;4992;51.628;6.664;2022-12-18T04:32:03;48.70;;;26.80;;
9906;SDS011;4992;51.628;6.664;2022-12-18T04:34:29;44.33;;;26.33;;
9906;SDS011;4992;51.628;6.664;2022-12-18T04:36:55;43.77;;;27.20;;
9906;SDS011;4992;51.628;6.664;2022-12-18T04:39:21;49.13;;;27.70;;
9906;SDS011;4992;51.628;6.664;2022-12-18T04:41:46;49.57;;;29.20;;
9906;SDS011;4992;51.628;6.664;2022-12-18T04:44:12;48.20;;;27.43;;
9906;SDS011;4992;51.628;6.664;2022-12-18T04:46:37;44.93;;;26.70;;
9906;SDS011;4992;51.628;6.664;2022-12-18T04:49:03;49.63;;;27.43;;
9906;SDS011;4992;51.628;6.664;2022-12-18T04:51:28;48.43;;;25.97;;
9906;SDS011;4992;51.628;6.664;2022-12-18T04:53:54;48.00;;;26.73;;
9906;SDS011;4992;51.628;6.664;2022-12-18T04:56:19;50.43;;;27.27;;
9906;SDS011;4992;51.628;6.664;2022-12-18T04:58:45;45.27;;;26.20;;
9906;SDS011;4992;51.628;6.664;2022-12-18T05:01:11;45.83;;;26.37;;
9906;SDS011;4992;51.628;6.664;2022-12-18T05:03:38;44.20;;;26.43;;
9906;SDS011;4992;51.628;6.664;2022-12-18T05:06:04;47.03;;;26.60;;
9906;SDS011;4992;51.628;6.664;2022-12-18T05:08:30;45.37;;;25.10;;
9906;SDS011;4992;51.628;6.664;2022-12-18T05:11:02;40.53;;;25.03;;
9906;SDS011;4992;51.628;6.664;2022-12-18T05:13:31;44.97;;;24.93;;
9906;SDS011;4992;51.628;6.664;2022-12-18T05:15:57;45.00;;;24.57;;
9906;SDS011;4992;51.628;6.664;2022-12-18T05:18:23;39.87;;;24.00;;
9906;SDS011;4992;51.628;6.664;2022-12-18T05:20:49;45.77;;;26.43;;
9906;SDS011;4992;51.628;6.664;2022-12-18T05:23:16;41.03;;;25.17;;
9906;SDS011;4992;51.628;6.664;2022-12-18T05:25:42;41.57;;;24.17;;
9906;SDS011;4992;51.628;6.664;2022-12-18T05:28:11;37.70;;;23.80;;
9906;SDS011;4992;51.628;6.664;2022-12-18T05:30:36;41.03;;;25.17;;
9906;SDS011;4992;51.628;6.664;2022-12-18T05:33:02;47.83;;;25.13;;
9906;SDS011;4992;51.628;6.664;2022-12-18T05:35:27;44.80;;;24.70;;
9906;SDS011;4992;51.628;6.664;2022-12-18T05:37:53;41.83;;;24.93;;
9906;SDS011;4992;51.628;6.664;2022-12-18T05:40:18;42.37;;;25.80;;
9906;SDS011;4992;51.628;6.664;2022-12-18T05:42:44;42.50;;;25.50;;
9906;SDS011;4992;51.628;6.664;2022-12-18T05:45:09;45.50;;;26.60;;
9906;SDS011;4992;51.628;6.664;2022-12-18T05:47:35;43.33;;;24.27;;
9906;SDS011;4992;51.628;6.664;2022-12-18T05:50:00;44.23;;;25.83;;
9906;SDS011;4992;51.628;6.664;2022-12-18T05:52:26;47.57;;;26.57;;
9906;SDS011;4992;51.628;6.664;2022-12-18T05:54:51;40.40;;;24.60;;
9906;SDS011;4992;51.628;6.664;2022-12-18T05:57:17;43.60;;;24.97;;
9906;SDS011;4992;51.628;6.664;2022-12-18T05:59:42;43.43;;;23.53;;
9906;SDS011;4992;51.628;6.664;2022-12-18T06:02:08;41.00;;;23.23;;
9906;SDS011;4992;51.628;6.664;2022-12-18T06:04:33;40.73;;;24.30;;
9906;SDS011;4992;51.628;6.664;2022-12-18T06:06:59;40.07;;;24.30;;
9906;SDS011;4992;51.628;6.664;2022-12-18T06:09:24;41.87;;;23.27;;
9906;SDS011;4992;51.628;6.664;2022-12-18T06:11:51;42.80;;;24.83;;
9906;SDS011;4992;51.628;6.664;2022-12-18T06:14:17;42.23;;;24.17;;
9906;SDS011;4992;51.628;6.664;2022-12-18T06:16:42;43.63;;;24.03;;
9906;SDS011;4992;51.628;6.664;2022-12-18T06:19:13;42.00;;;23.97;;
9906;SDS011;4992;51.628;6.664;2022-12-18T06:21:40;39.97;;;24.63;;
9906;SDS011;4992;51.628;6.664;2022-12-18T06:24:05;40.63;;;23.77;;
9906;SDS011;4992;51.628;6.664;2022-12-18T06:26:31;40.63;;;23.90;;
9906;SDS011;4992;51.628;6.664;2022-12-18T06:28:56;45.07;;;25.87;;
9906;SDS011;4992;51.628;6.664;2022-12-18T06:31:22;40.13;;;24.27;;
9906;SDS011;4992;51.628;6.664;2022-12-18T06:33:47;43.50;;;24.93;;
9906;SDS011;4992;51.628;6.664;2022-12-18T06:36:13;38.57;;;22.97;;
9906;SDS011;4992;51.628;6.664;2022-12-18T06:38:40;37.67;;;23.57;;
9906;SDS011;4992;51.628;6.664;2022-12-18T06:41:07;46.97;;;25.53;;
9906;SDS011;4992;51.628;6.664;2022-12-18T06:43:34;44.53;;;25.67;;
9906;SDS011;4992;51.628;6.664;2022-12-18T06:45:59;42.77;;;25.03;;
9906;SDS011;4992;51.628;6.664;2022-12-18T06:48:25;45.60;;;25.77;;
9906;SDS011;4992;51.628;6.664;2022-12-18T06:50:51;40.73;;;26.57;;
9906;SDS011;4992;51.628;6.664;2022-12-18T06:53:17;44.33;;;26.77;;
9906;SDS011;4992;51.628;6.664;2022-12-18T06:55:42;44.00;;;25.90;;
9906;SDS011;4992;51.628;6.664;2022-12-18T06:58:08;45.37;;;26.53;;
9906;SDS011;4992;51.628;6.664;2022-12-18T07:00:33;42.83;;;25.83;;
9906;SDS011;4992;51.628;6.664;2022-12-18T07:02:59;46.30;;;27.63;;
9906;SDS011;4992;51.628;6.664;2022-12-18T07:05:24;42.87;;;25.83;;
9906;SDS011;4992;51.628;6.664;2022-12-18T07:07:50;46.70;;;26.90;;
9906;SDS011;4992;51.628;6.664;2022-12-18T07:10:15;44.37;;;25.97;;
9906;SDS011;4992;51.628;6.664;2022-12-18T07:12:41;43.73;;;26.40;;
9906;SDS011;4992;51.628;6.664;2022-12-18T07:15:06;41.83;;;25.57;;
9906;SDS011;4992;51.628;6.664;2022-12-18T07:17:32;42.20;;;24.67;;
9906;SDS011;4992;51.628;6.664;2022-12-18T07:19:58;42.80;;;26.03;;
9906;SDS011;4992;51.628;6.664;2022-12-18T07:22:24;43.73;;;26.37;;
9906;SDS011;4992;51.628;6.664;2022-12-18T07:24:50;41.90;;;25.77;;
9906;SDS011;4992;51.628;6.664;2022-12-18T07:27:16;48.10;;;29.10;;
9906;SDS011;4992;51.628;6.664;2022-12-18T07:29:42;47.53;;;29.07;;
9906;SDS011;4992;51.628;6.664;2022-12-18T07:32:07;47.73;;;28.87;;
9906;SDS011;4992;51.628;6.664;2022-12-18T07:34:33;46.47;;;28.53;;
9906;SDS011;4992;51.628;6.664;2022-12-18T07:36:59;43.93;;;27.40;;
9906;SDS011;4992;51.628;6.664;2022-12-18T07:39:24;46.17;;;26.73;;
9906;SDS011;4992;51.628;6.664;2022-12-18T07:41:50;44.60;;;27.90;;
9906;SDS011;4992;51.628;6.664;2022-12-18T07:44:34;43.37;;;27.87;;
9906;SDS011;4992;51.628;6.664;2022-12-18T07:47:00;41.90;;;27.40;;
9906;SDS011;4992;51.628;6.664;2022-12-18T07:49:25;41.90;;;26.83;;
9906;SDS011;4992;51.628;6.664;2022-12-18T07:51:51;40.40;;;27.53;;
9906;SDS011;4992;51.628;6.664;2022-12-18T07:54:20;43.17;;;24.93;;
9906;SDS011;4992;51.628;6.664;2022-12-18T07:56:45;40.70;;;27.20;;
9906;SDS011;4992;51.628;6.664;2022-12-18T07:59:11;39.87;;;25.93;;
9906;SDS011;4992;51.628;6.664;2022-12-18T08:01:36;42.83;;;26.47;;
9906;SDS011;4992;51.628;6.664;2022-12-18T08:04:02;41.90;;;26.63;;
9906;SDS011;4992;51.628;6.664;2022-12-18T08:06:27;45.27;;;27.60;;
9906;SDS011;4992;51.628;6.664;2022-12-18T08:08:53;41.40;;;26.97;;
9906;SDS011;4992;51.628;6.664;2022-12-18T08:11:19;45.20;;;29.17;;
9906;SDS011;4992;51.628;6.664;2022-12-18T08:13:45;48.80;;;29.47;;
9906;SDS011;4992;51.628;6.664;2022-12-18T08:16:11;53.53;;;33.13;;
9906;SDS011;4992;51.628;6.664;2022-12-18T08:18:36;58.40;;;34.27;;
9906;SDS011;4992;51.628;6.664;2022-12-18T08:21:12;55.60;;;34.97;;
9906;SDS011;4992;51.628;6.664;2022-12-18T08:23:49;55.40;;;31.63;;
9906;SDS011;4992;51.628;6.664;2022-12-18T08:26:15;47.30;;;28.63;;
9906;SDS011;4992;51.628;6.664;2022-12-18T08:28:41;43.40;;;28.30;;
9906;SDS011;4992;51.628;6.664;2022-12-18T08:31:08;45.37;;;26.60;;
9906;SDS011;4992;51.628;6.664;2022-12-18T08:33:33;43.77;;;25.97;;
9906;SDS011;4992;51.628;6.664;2022-12-18T08:36:00;37.90;;;24.13;;
9906;SDS011;4992;51.628;6.664;2022-12-18T08:38:27;39.83;;;24.30;;
9906;SDS011;4992;51.628;6.664;2022-12-18T08:41:06;38.43;;;22.63;;
9906;SDS011;4992;51.628;6.664;2022-12-18T08:43:33;37.77;;;22.63;;
9906;SDS011;4992;51.628;6.664;2022-12-18T08:46:17;34.83;;;22.47;;
9906;SDS011;4992;51.628;6.664;2022-12-18T08:48:44;37.33;;;20.83;;
9906;SDS011;4992;51.628;6.664;2022-12-18T08:51:10;36.33;;;20.97;;
9906;SDS011;4992;51.628;6.664;2022-12-18T08:53:36;36.33;;;21.80;;
9906;SDS011;4992;51.628;6.664;2022-12-18T08:56:02;38.90;;;23.50;;
9906;SDS011;4992;51.628;6.664;2022-12-18T08:58:28;34.43;;;22.57;;
9906;SDS011;4992;51.628;6.664;2022-12-18T09:00:59;35.77;;;22.80;;
9906;SDS011;4992;51.628;6.664;2022-12-18T09:03:26;37.03;;;23.43;;
9906;SDS011;4992;51.628;6.664;2022-12-18T09:05:52;34.83;;;21.47;;
9906;SDS011;4992;51.628;6.664;2022-12-18T09:08:18;34.83;;;22.73;;
9906;SDS011;4992;51.628;6.664;2022-12-18T09:10:44;35.63;;;23.80;;
9906;SDS011;4992;51.628;6.664;2022-12-18T09:13:11;37.70;;;23.87;;
9906;SDS011;4992;51.628;6.664;2022-12-18T09:15:43;37.70;;;24.00;;
9906;SDS011;4992;51.628;6.664;2022-12-18T09:18:12;38.00;;;26.20;;
9906;SDS011;4992;51.628;6.664;2022-12-18T09:20:38;42.13;;;26.00;;
9906;SDS011;4992;51.628;6.664;2022-12-18T09:23:04;43.50;;;25.83;;
9906;SDS011;4992;51.628;6.664;2022-12-18T09:25:31;39.00;;;23.67;;
9906;SDS011;4992;51.628;6.664;2022-12-18T09:27:58;40.07;;;24.93;;
9906;SDS011;4992;51.628;6.664;2022-12-18T09:30:25;38.37;;;24.97;;
9906;SDS011;4992;51.628;6.664;2022-12-18T09:32:54;35.97;;;23.33;;
9906;SDS011;4992;51.628;6.664;2022-12-18T09:35:20;34.73;;;22.50;;
9906;SDS011;4992;51.628;6.664;2022-12-18T09:37:45;37.00;;;24.27;;
9906;SDS011;4992;51.628;6.664;2022-12-18T09:40:18;38.87;;;24.73;;
9906;SDS011;4992;51.628;6.664;2022-12-18T09:42:46;38.07;;;23.40;;
9906;SDS011;4992;51.628;6.664;2022-12-18T09:45:18;39.23;;;24.90;;
9906;SDS011;4992;51.628;6.664;2022-12-18T09:47:45;36.63;;;22.13;;
9906;SDS011;4992;51.628;6.664;2022-12-18T09:50:29;44.73;;;25.70;;
9906;SDS011;4992;51.628;6.664;2022-12-18T09:53:11;44.10;;;25.20;;
9906;SDS011;4992;51.628;6.664;2022-12-18T09:55:41;33.23;;;21.20;;
9906;SDS011;4992;51.628;6.664;2022-12-18T10:00:35;25.17;;;18.20;;
9906;SDS011;4992;51.628;6.664;2022-12-18T10:03:03;32.57;;;20.10;;
9906;SDS011;4992;51.628;6.664;2022-12-18T10:05:54;27.17;;;18.67;;
9906;SDS011;4992;51.628;6.664;2022-12-18T10:11:30;32.57;;;21.63;;
9906;SDS011;4992;51.628;6.664;2022-12-18T10:13:59;40.57;;;24.93;;
9906;SDS011;4992;51.628;6.664;2022-12-18T10:16:36;30.87;;;20.80;;
9906;SDS011;4992;51.628;6.664;2022-12-18T10:19:17;31.87;;;20.73;;
9906;SDS011;4992;51.628;6.664;2022-12-18T10:24:53;26.43;;;18.27;;
9906;SDS011;4992;51.628;6.664;2022-12-18T10:27:25;26.83;;;17.07;;
9906;SDS011;4992;51.628;6.664;2022-12-18T10:29:52;25.03;;;17.03;;
9906;SDS011;4992;51.628;6.664;2022-12-18T10:32:19;26.80;;;18.80;;
9906;SDS011;4992;51.628;6.664;2022-12-18T10:34:48;26.30;;;18.63;;
9906;SDS011;4992;51.628;6.664;2022-12-18T10:37:16;27.57;;;19.77;;
9906;SDS011;4992;51.628;6.664;2022-12-18T10:39:43;27.23;;;18.87;;
9906;SDS011;4992;51.628;6.664;2022-12-18T10:42:10;28.37;;;18.30;;
9906;SDS011;4992;51.628;6.664;2022-12-18T10:44:43;26.47;;;19.20;;
9906;SDS011;4992;51.628;6.664;2022-12-18T10:47:11;27.60;;;18.37;;
9906;SDS011;4992;51.628;6.664;2022-12-18T10:49:41;27.07;;;18.07;;
9906;SDS011;4992;51.628;6.664;2022-12-18T10:52:17;23.73;;;16.47;;
9906;SDS011;4992;51.628;6.664;2022-12-18T10:54:46;24.63;;;16.97;;
9906;SDS011;4992;51.628;6.664;2022-12-18T10:57:36;24.57;;;16.70;;
9906;SDS011;4992;51.628;6.664;2022-12-18T11:02:55;24.63;;;17.40;;
9906;SDS011;4992;51.628;6.664;2022-12-18T11:07:58;25.10;;;18.03;;
9906;SDS011;4992;51.628;6.664;2022-12-18T11:10:29;27.67;;;18.60;;
9906;SDS011;4992;51.628;6.664;2022-12-18T11:13:08;30.97;;;22.53;;
9906;SDS011;4992;51.628;6.664;2022-12-18T11:15:35;27.23;;;18.60;;
9906;SDS011;4992;51.628;6.664;2022-12-18T11:18:01;22.70;;;16.90;;
9906;SDS011;4992;51.628;6.664;2022-12-18T11:20:29;26.67;;;18.13;;
9906;SDS011;4992;51.628;6.664;2022-12-18T11:22:59;30.63;;;19.57;;
9906;SDS011;4992;51.628;6.664;2022-12-18T11:25:37;27.33;;;17.83;;
9906;SDS011;4992;51.628;6.664;2022-12-18T11:28:04;25.27;;;16.17;;
9906;SDS011;4992;51.628;6.664;2022-12-18T11:30:51;25.83;;;16.53;;
9906;SDS011;4992;51.628;6.664;2022-12-18T11:33:33;23.37;;;16.93;;
9906;SDS011;4992;51.628;6.664;2022-12-18T11:36:00;31.87;;;18.77;;
9906;SDS011;4992;51.628;6.664;2022-12-18T11:38:30;25.20;;;16.27;;
9906;SDS011;4992;51.628;6.664;2022-12-18T11:41:04;25.10;;;17.53;;
9906;SDS011;4992;51.628;6.664;2022-12-18T11:44:14;32.80;;;18.93;;
9906;SDS011;4992;51.628;6.664;2022-12-18T11:46:55;26.93;;;18.20;;
9906;SDS011;4992;51.628;6.664;2022-12-18T11:49:32;30.90;;;18.83;;
9906;SDS011;4992;51.628;6.664;2022-12-18T11:52:09;27.47;;;19.10;;
9906;SDS011;4992;51.628;6.664;2022-12-18T11:54:42;26.13;;;18.03;;
9906;SDS011;4992;51.628;6.664;2022-12-18T11:57:11;21.70;;;16.80;;
9906;SDS011;4992;51.628;6.664;2022-12-18T11:59:52;27.13;;;18.03;;
9906;SDS011;4992;51.628;6.664;2022-12-18T12:06:06;20.23;;;16.30;;
9906;SDS011;4992;51.628;6.664;2022-12-18T12:08:58;25.77;;;19.10;;
9906;SDS011;4992;51.628;6.664;2022-12-18T12:12:00;27.70;;;19.77;;
9906;SDS011;4992;51.628;6.664;2022-12-18T12:17:37;27.70;;;19.80;;
9906;SDS011;4992;51.628;6.664;2022-12-18T12:20:20;28.40;;;19.93;;
9906;SDS011;4992;51.628;6.664;2022-12-18T12:23:13;23.50;;;18.40;;
9906;SDS011;4992;51.628;6.664;2022-12-18T12:31:22;28.03;;;19.30;;
9906;SDS011;4992;51.628;6.664;2022-12-18T12:34:13;26.87;;;18.33;;
9906;SDS011;4992;51.628;6.664;2022-12-18T12:39:30;19.93;;;15.80;;
9906;SDS011;4992;51.628;6.664;2022-12-18T12:41:59;24.93;;;16.20;;
9906;SDS011;4992;51.628;6.664;2022-12-18T12:44:49;20.00;;;15.83;;
9906;SDS011;4992;51.628;6.664;2022-12-18T12:47:26;23.40;;;16.73;;
9906;SDS011;4992;51.628;6.664;2022-12-18T12:49:57;25.87;;;17.63;;
9906;SDS011;4992;51.628;6.664;2022-12-18T12:54:55;23.27;;;17.17;;
9906;SDS011;4992;51.628;6.664;2022-12-18T12:57:23;22.73;;;17.07;;
9906;SDS011;4992;51.628;6.664;2022-12-18T13:00:06;25.10;;;17.87;;
9906;SDS011;4992;51.628;6.664;2022-12-18T13:05:22;25.90;;;18.17;;
9906;SDS011;4992;51.628;6.664;2022-12-18T13:07:59;24.07;;;18.53;;
9906;SDS011;4992;51.628;6.664;2022-12-18T13:13:03;26.03;;;18.67;;
9906;SDS011;4992;51.628;6.664;2022-12-18T13:15:43;21.40;;;15.57;;
9906;SDS011;4992;51.628;6.664;2022-12-18T13:18:21;18.37;;;12.53;;
9906;SDS011;4992;51.628;6.664;2022-12-18T13:21:01;18.20;;;12.40;;
9906;SDS011;4992;51.628;6.664;2022-12-18T13:23:34;13.33;;;11.07;;
9906;SDS011;4992;51.628;6.664;2022-12-18T13:34:14;9.90;;;7.80;;
9906;SDS011;4992;51.628;6.664;2022-12-18T13:36:42;12.20;;;7.30;;
9906;SDS011;4992;51.628;6.664;2022-12-18T13:41:42;8.83;;;6.93;;
9906;SDS011;4992;51.628;6.664;2022-12-18T13:46:58;8.67;;;6.80;;
9906;SDS011;4992;51.628;6.664;2022-12-18T13:49:38;8.17;;;7.03;;
9906;SDS011;4992;51.628;6.664;2022-12-18T13:52:15;11.10;;;7.77;;
9906;SDS011;4992;51.628;6.664;2022-12-18T13:54:59;9.80;;;6.97;;
9906;SDS011;4992;51.628;6.664;2022-12-18T13:57:30;10.03;;;7.33;;
9906;SDS011;4992;51.628;6.664;2022-12-18T13:59:57;12.40;;;7.63;;
9906;SDS011;4992;51.628;6.664;2022-12-18T14:02:24;9.70;;;7.17;;
9906;SDS011;4992;51.628;6.664;2022-12-18T14:04:51;10.50;;;7.87;;
9906;SDS011;4992;51.628;6.664;2022-12-18T14:07:18;9.83;;;7.00;;
9906;SDS011;4992;51.628;6.664;2022-12-18T14:09:48;13.57;;;6.73;;
9906;SDS011;4992;51.628;6.664;2022-12-18T14:12:20;9.07;;;7.03;;
9906;SDS011;4992;51.628;6.664;2022-12-18T14:17:58;9.70;;;6.70;;
9906;SDS011;4992;51.628;6.664;2022-12-18T14:20:44;11.30;;;7.67;;
9906;SDS011;4992;51.628;6.664;2022-12-18T14:28:45;9.90;;;7.70;;
9906;SDS011;4992;51.628;6.664;2022-12-18T14:31:21;13.40;;;7.97;;
9906;SDS011;4992;51.628;6.664;2022-12-18T14:33:51;10.67;;;7.73;;
9906;SDS011;4992;51.628;6.664;2022-12-18T14:36:19;10.10;;;7.47;;
9906;SDS011;4992;51.628;6.664;2022-12-18T14:38:48;12.60;;;8.07;;
9906;SDS011;4992;51.628;6.664;2022-12-18T14:41:16;10.77;;;7.90;;
9906;SDS011;4992;51.628;6.664;2022-12-18T14:43:43;13.10;;;7.43;;
9906;SDS011;4992;51.628;6.664;2022-12-18T14:46:29;10.83;;;7.93;;
9906;SDS011;4992;51.628;6.664;2022-12-18T14:49:00;13.47;;;9.23;;
9906;SDS011;4992;51.628;6.664;2022-12-18T14:51:28;10.33;;;7.43;;
9906;SDS011;4992;51.628;6.664;2022-12-18T14:53:57;9.80;;;7.83;;
9906;SDS011;4992;51.628;6.664;2022-12-18T14:59:04;9.77;;;7.97;;
9906;SDS011;4992;51.628;6.664;2022-12-18T15:01:39;12.20;;;8.73;;
9906;SDS011;4992;51.628;6.664;2022-12-18T15:09:36;12.73;;;8.37;;
9906;SDS011;4992;51.628;6.664;2022-12-18T15:12:03;12.50;;;8.80;;
9906;SDS011;4992;51.628;6.664;2022-12-18T15:14:30;12.27;;;8.60;;
9906;SDS011;4992;51.628;6.664;2022-12-18T15:17:03;11.53;;;8.63;;
9906;SDS011;4992;51.628;6.664;2022-12-18T15:19:41;12.17;;;8.47;;
9906;SDS011;4992;51.628;6.664;2022-12-18T15:24:45;16.57;;;10.90;;
9906;SDS011;4992;51.628;6.664;2022-12-18T15:27:33;19.33;;;10.30;;
9906;SDS011;4992;51.628;6.664;2022-12-18T15:32:35;13.60;;;8.87;;
9906;SDS011;4992;51.628;6.664;2022-12-18T15:35:03;14.60;;;9.03;;
9906;SDS011;4992;51.628;6.664;2022-12-18T15:37:36;12.97;;;9.00;;
9906;SDS011;4992;51.628;6.664;2022-12-18T15:40:04;14.53;;;9.40;;
9906;SDS011;4992;51.628;6.664;2022-12-18T15:42:30;12.53;;;9.57;;
9906;SDS011;4992;51.628;6.664;2022-12-18T15:45:14;13.23;;;9.23;;
9906;SDS011;4992;51.628;6.664;2022-12-18T15:47:40;13.63;;;9.17;;
9906;SDS011;4992;51.628;6.664;2022-12-18T15:50:09;11.40;;;8.83;;
9906;SDS011;4992;51.628;6.664;2022-12-18T15:52:45;11.77;;;8.63;;
9906;SDS011;4992;51.628;6.664;2022-12-18T15:55:13;14.10;;;8.87;;
9906;SDS011;4992;51.628;6.664;2022-12-18T15:58:03;13.17;;;9.10;;
9906;SDS011;4992;51.628;6.664;2022-12-18T16:00:29;17.83;;;9.63;;
9906;SDS011;4992;51.628;6.664;2022-12-18T16:02:55;16.10;;;11.30;;
9906;SDS011;4992;51.628;6.664;2022-12-18T16:05:20;19.07;;;10.40;;
9906;SDS011;4992;51.628;6.664;2022-12-18T16:07:47;17.60;;;10.67;;
9906;SDS011;4992;51.628;6.664;2022-12-18T16:10:13;13.77;;;10.23;;
9906;SDS011;4992;51.628;6.664;2022-12-18T16:12:39;18.33;;;10.17;;
9906;SDS011;4992;51.628;6.664;2022-12-18T16:15:06;13.93;;;9.90;;
9906;SDS011;4992;51.628;6.664;2022-12-18T16:17:32;15.63;;;10.50;;
9906;SDS011;4992;51.628;6.664;2022-12-18T16:19:58;15.57;;;9.93;;
9906;SDS011;4992;51.628;6.664;2022-12-18T16:22:24;12.63;;;9.43;;
9906;SDS011;4992;51.628;6.664;2022-12-18T16:24:52;15.10;;;10.10;;
9906;SDS011;4992;51.628;6.664;2022-12-18T16:27:19;19.87;;;13.80;;
9906;SDS011;4992;51.628;6.664;2022-12-18T16:29:46;16.40;;;11.30;;
9906;SDS011;4992;51.628;6.664;2022-12-18T16:32:13;21.30;;;10.57;;
9906;SDS011;4992;51.628;6.664;2022-12-18T16:34:41;16.43;;;10.37;;
9906;SDS011;4992;51.628;6.664;2022-12-18T16:37:09;16.40;;;10.27;;
9906;SDS011;4992;51.628;6.664;2022-12-18T16:39:36;16.47;;;11.53;;
9906;SDS011;4992;51.628;6.664;2022-12-18T16:42:03;16.40;;;11.13;;
9906;SDS011;4992;51.628;6.664;2022-12-18T16:44:33;21.47;;;11.83;;
9906;SDS011;4992;51.628;6.664;2022-12-18T16:46:59;19.37;;;12.67;;
9906;SDS011;4992;51.628;6.664;2022-12-18T16:49:27;18.63;;;12.03;;